Darstellungsparameter: Aktuell verwendete Einstellungen:
Skalierung der Graphiken ... ?
xyx+y,   Skalierungsfaktor:      Skalierung: Modus: x, Faktor: 1
Darstellungszeitraum ... ?
Vom - - bis: - -   Zeitraum: 10.11.2011 - 10.11.2011
Min/Max/Avg-Anzeige ... ?
Zeige MMA aktuell
Zeige MMA Monat
Zeige MMA alles
Zeige --A aktuell
Zeige --A Monat
Zeige --A alles
Keine MMA-Anzeige
MMA:
Average (ber die Originaldaten)
MMA-Basis: 10.11.2011 - 10.11.2011
Quicknavigation für Darstellung... ?
Tage:      1T, 2T, 3T, 5T -1T -2T -3T -5T +1T +2T +3T +5T
Wochen: 1W, 2W, 3W -1W -2W -3W +1W +2W +3W
Monate: 1M, 3M, 6M -1M -3M -6M +1M +3M +6M
Jahre:    1J, 3J, 5J, 10J -1J -3J -5J -10J +1J +3J +5J +10J
Nutze für die Darstellung ... ?
Originaldaten oder Mittelwerte auf ...
Stundenbasis Tagesbasis Wochenbasis
Monatsbasis Jahresbasis      Datenbasis: Original-Daten
Darstellen als:
Statistik (Auto) Statistik J:M      Darstellung:
Zur Graphik,    zurück zur Übersicht aller Sensoren.
 
Tabellarische Datenbersicht: ?
 
Sensor: Nr:Datum:Temp:Abs-Feuchte:Windchill:Wind:
Aussen-T/F 1 10-11-2011 00:11:04 6.3 C 6.37 g/m*3 6.3 C 0 km/h
2 10-11-2011 00:23:04 6.5 C 6.45 g/m*3 6.5 C 0 km/h
3 10-11-2011 00:35:04 6.3 C 6.37 g/m*3 6.3 C 0 km/h
4 10-11-2011 00:47:04 6.2 C 6.32 g/m*3 6.2 C 0 km/h
5 10-11-2011 00:59:05 6 C 6.24 g/m*3 6 C 0 km/h
6 10-11-2011 01:11:05 6 C 6.24 g/m*3 6 C 0 km/h
7 10-11-2011 01:23:05 5.9 C 6.27 g/m*3 5.9 C 0 km/h
8 10-11-2011 01:35:05 5.8 C 6.23 g/m*3 5.8 C 0 km/h
9 10-11-2011 01:47:05 5.9 C 6.27 g/m*3 5.9 C 0 km/h
10 10-11-2011 01:59:05 5.9 C 6.27 g/m*3 5.9 C 0 km/h
11 10-11-2011 02:11:05 5.9 C 6.27 g/m*3 5.9 C 0 km/h
12 10-11-2011 02:23:05 5.8 C 6.23 g/m*3 5.8 C 0 km/h
13 10-11-2011 02:35:05 5.8 C 6.23 g/m*3 5.8 C 0 km/h
14 10-11-2011 02:47:05 5.7 C 6.19 g/m*3 5.7 C 0 km/h
15 10-11-2011 02:59:05 5.6 C 6.08 g/m*3 5.6 C 0 km/h
16 10-11-2011 03:11:05 5.6 C 6.08 g/m*3 5.6 C 0 km/h
17 10-11-2011 03:23:05 5.6 C 6.08 g/m*3 5.6 C 0 km/h
18 10-11-2011 03:35:05 5.7 C 6.12 g/m*3 5.7 C 0 km/h
19 10-11-2011 03:47:05 5.6 C 6.08 g/m*3 5.6 C 0 km/h
20 10-11-2011 03:59:05 5.6 C 6.08 g/m*3 5.6 C 0 km/h
21 10-11-2011 04:11:05 5.6 C 6.01 g/m*3 5.6 C 0 km/h
22 10-11-2011 04:23:05 5.5 C 5.97 g/m*3 5.5 C 0 km/h
23 10-11-2011 04:35:05 5.6 C 6.01 g/m*3 5.6 C 0 km/h
24 10-11-2011 04:47:05 5.5 C 5.97 g/m*3 5.5 C 0 km/h
25 10-11-2011 04:59:06 5.4 C 5.86 g/m*3 5.4 C 0 km/h
Sensor: Nr:Datum:Temp:Abs-Feuchte:Windchill:Wind:
Aussen-T/F 26 10-11-2011 05:11:06 5.4 C 5.86 g/m*3 5.4 C 0 km/h
27 10-11-2011 05:23:06 5.5 C 5.97 g/m*3 5.5 C 0 km/h
28 10-11-2011 05:35:06 5.5 C 5.9 g/m*3 5.5 C 0 km/h
29 10-11-2011 05:47:06 5.5 C 5.9 g/m*3 5.5 C 0 km/h
30 10-11-2011 05:59:06 5.4 C 5.86 g/m*3 5.4 C 0 km/h
31 10-11-2011 06:11:06 5.4 C 5.86 g/m*3 5.4 C 0 km/h
32 10-11-2011 06:23:06 5.3 C 5.75 g/m*3 5.3 C 0 km/h
33 10-11-2011 06:35:06 5.3 C 5.75 g/m*3 5.3 C 0 km/h
34 10-11-2011 06:47:06 5.3 C 5.75 g/m*3 5.3 C 0 km/h
35 10-11-2011 06:59:06 5.3 C 5.82 g/m*3 5.3 C 0 km/h
36 10-11-2011 07:11:06 5.3 C 5.82 g/m*3 5.3 C 0 km/h
37 10-11-2011 07:23:06 5.4 C 5.86 g/m*3 5.4 C 0 km/h
38 10-11-2011 07:35:06 5.4 C 5.86 g/m*3 5.4 C 0 km/h
39 10-11-2011 07:47:01 5.5 C 5.9 g/m*3 5.5 C 0 km/h
40 10-11-2011 07:59:01 5.4 C 5.86 g/m*3 5.4 C 0 km/h
41 10-11-2011 08:11:02 5.4 C 5.86 g/m*3 5.4 C 0 km/h
42 10-11-2011 08:23:01 5.6 C 5.94 g/m*3 5.6 C 0 km/h
43 10-11-2011 08:35:01 5.7 C 5.98 g/m*3 5.7 C 0 km/h
44 10-11-2011 08:47:01 5.8 C 6.02 g/m*3 5.8 C 0 km/h
45 10-11-2011 08:59:01 5.8 C 5.95 g/m*3 5.8 C 0 km/h
46 10-11-2011 09:11:02 5.8 C 5.95 g/m*3 5.8 C 0 km/h
47 10-11-2011 09:23:02 5.9 C 5.98 g/m*3 5.9 C 0 km/h
48 10-11-2011 09:35:01 6 C 5.88 g/m*3 6 C 0 km/h
49 10-11-2011 09:47:02 6 C 5.88 g/m*3 6 C 0 km/h
50 10-11-2011 09:59:02 6.1 C 5.92 g/m*3 6.1 C 0 km/h
Sensor: Nr:Datum:Temp:Abs-Feuchte:Windchill:Wind:
Aussen-T/F 51 10-11-2011 10:11:01 6.4 C 5.96 g/m*3 6.4 C 0 km/h
52 10-11-2011 10:23:02 6.4 C 5.89 g/m*3 6.4 C 0 km/h
53 10-11-2011 10:35:01 6.4 C 5.89 g/m*3 6.4 C 0 km/h
54 10-11-2011 10:47:02 6.5 C 5.92 g/m*3 6.5 C 0 km/h
55 10-11-2011 10:59:02 6.5 C 5.85 g/m*3 6.5 C 0 km/h
56 10-11-2011 11:11:02 6.6 C 5.89 g/m*3 6.6 C 0 km/h
57 10-11-2011 11:23:02 6.7 C 5.93 g/m*3 6.7 C 0 km/h
58 10-11-2011 11:35:02 6.8 C 5.97 g/m*3 6.8 C 0 km/h
59 10-11-2011 11:47:02 6.7 C 5.93 g/m*3 6.7 C 0 km/h
60 10-11-2011 11:59:02 7.1 C 5.93 g/m*3 7.1 C 0 km/h
61 10-11-2011 12:11:02 7 C 5.81 g/m*3 7 C 0 km/h
62 10-11-2011 12:23:01 7.1 C 5.85 g/m*3 7.1 C 0 km/h
63 10-11-2011 12:35:02 7.2 C 5.81 g/m*3 7.2 C 0 km/h
64 10-11-2011 12:47:02 7.2 C 5.81 g/m*3 7.2 C 0 km/h
65 10-11-2011 12:59:02 7.4 C 5.88 g/m*3 7.4 C 0 km/h
66 10-11-2011 13:11:02 7.2 C 5.89 g/m*3 7.2 C 0 km/h
67 10-11-2011 13:23:01 7.5 C 6 g/m*3 7.5 C 0 km/h
68 10-11-2011 13:35:02 7.6 C 5.96 g/m*3 7.6 C 0 km/h
69 10-11-2011 13:47:01 7.5 C 5.84 g/m*3 7.5 C 0 km/h
70 10-11-2011 13:59:01 7.6 C 5.88 g/m*3 7.6 C 0 km/h
71 10-11-2011 14:11:02 7.4 C 5.88 g/m*3 7.4 C 0 km/h
72 10-11-2011 14:23:02 7.3 C 5.85 g/m*3 7.3 C 0 km/h
73 10-11-2011 14:35:02 7.3 C 5.93 g/m*3 7.3 C 0 km/h
74 10-11-2011 14:47:02 7.3 C 5.93 g/m*3 7.3 C 0 km/h
75 10-11-2011 14:59:02 7.2 C 5.89 g/m*3 7.2 C 0 km/h
Sensor: Nr:Datum:Temp:Abs-Feuchte:Windchill:Wind:
Aussen-T/F 76 10-11-2011 15:11:02 7.1 C 5.85 g/m*3 7.1 C 0 km/h
77 10-11-2011 15:23:02 7 C 5.81 g/m*3 7 C 0 km/h
78 10-11-2011 15:35:01 7 C 5.81 g/m*3 7 C 0 km/h
79 10-11-2011 15:47:02 6.9 C 5.85 g/m*3 6.9 C 0 km/h
80 10-11-2011 15:59:02 6.8 C 5.81 g/m*3 6.8 C 0 km/h
81 10-11-2011 16:11:01 6.8 C 5.81 g/m*3 6.8 C 0 km/h
82 10-11-2011 16:23:01 6.7 C 5.77 g/m*3 6.7 C 0 km/h
83 10-11-2011 16:35:02 6.7 C 5.85 g/m*3 6.7 C 0 km/h
84 10-11-2011 16:47:02 6.7 C 5.85 g/m*3 6.7 C 0 km/h
85 10-11-2011 16:59:02 6.7 C 5.93 g/m*3 6.7 C 0 km/h
86 10-11-2011 17:11:02 6.6 C 5.89 g/m*3 6.6 C 0 km/h
87 10-11-2011 17:23:02 6.5 C 5.92 g/m*3 6.5 C 0 km/h
88 10-11-2011 17:35:02 6.5 C 6 g/m*3 6.5 C 0 km/h
89 10-11-2011 17:47:03 6.6 C 6.04 g/m*3 6.6 C 0 km/h
90 10-11-2011 17:59:03 6.7 C 6.08 g/m*3 6.7 C 0 km/h
91 10-11-2011 18:11:03 6.7 C 6.08 g/m*3 6.7 C 0 km/h
92 10-11-2011 18:23:02 6.7 C 6.08 g/m*3 6.7 C 0 km/h
93 10-11-2011 18:35:03 6.6 C 6.04 g/m*3 6.6 C 0 km/h
94 10-11-2011 18:47:02 6.6 C 6.11 g/m*3 6.6 C 0 km/h
95 10-11-2011 18:59:02 6.6 C 6.11 g/m*3 6.6 C 0 km/h
96 10-11-2011 19:11:02 6.5 C 6.07 g/m*3 6.5 C 0 km/h
97 10-11-2011 19:23:01 6.4 C 6.11 g/m*3 6.4 C 0 km/h
98 10-11-2011 19:35:02 6.3 C 6.14 g/m*3 6.3 C 0 km/h
99 10-11-2011 19:47:02 6.3 C 6.14 g/m*3 6.3 C 0 km/h
100 10-11-2011 19:59:02 6.3 C 6.22 g/m*3 6.3 C 0 km/h
Sensor: Nr:Datum:Temp:Abs-Feuchte:Windchill:Wind:
Aussen-T/F 101 10-11-2011 20:11:02 6.3 C 6.22 g/m*3 6.3 C 0 km/h
102 10-11-2011 20:23:01 6.4 C 6.26 g/m*3 6.4 C 0 km/h
103 10-11-2011 20:35:02 6.4 C 6.26 g/m*3 6.4 C 0 km/h
104 10-11-2011 20:47:01 6.3 C 6.29 g/m*3 6.3 C 0 km/h
105 10-11-2011 20:59:01 6.3 C 6.29 g/m*3 6.3 C 0 km/h
106 10-11-2011 21:11:02 6.3 C 6.29 g/m*3 6.3 C 0 km/h
107 10-11-2011 21:23:02 6.4 C 6.33 g/m*3 6.4 C 0 km/h
108 10-11-2011 21:35:01 6.4 C 6.33 g/m*3 6.4 C 0 km/h
109 10-11-2011 21:48:03 6.4 C 6.33 g/m*3 6.4 C 0 km/h
110 10-11-2011 22:00:03 6.5 C 6.37 g/m*3 6.5 C 0 km/h
111 10-11-2011 22:12:03 6.5 C 6.37 g/m*3 6.5 C 0 km/h
112 10-11-2011 22:24:03 6.5 C 6.3 g/m*3 6.5 C 0 km/h
113 10-11-2011 22:36:03 6.5 C 6.3 g/m*3 6.5 C 0 km/h
114 10-11-2011 22:48:04 6.5 C 6.3 g/m*3 6.5 C 0 km/h
115 10-11-2011 23:00:04 6.5 C 6.3 g/m*3 6.5 C 0 km/h
116 10-11-2011 23:12:04 6.5 C 6.3 g/m*3 6.5 C 0 km/h
117 10-11-2011 23:24:04 6.5 C 6.3 g/m*3 6.5 C 0 km/h
118 10-11-2011 23:36:04 6.6 C 6.34 g/m*3 6.6 C 0 km/h
119 10-11-2011 23:48:04 6.6 C 6.34 g/m*3 6.6 C 0 km/h

Legende:
   Min
   Max


Maximal/Minimal-Werte vom 10.11.2011 - 10.11.2011

Sensor Min Max Avg
Temp
(Aussen-T/F)
5.3 °C
10-11-2011  06:23:06
7.6 °C
10-11-2011  13:35:02
6.29 °C
Abs-Feuchte
(Aussen-T/F)
5.75 g/m*3
10-11-2011  06:23:06
6.45 g/m*3
10-11-2011  00:23:04
5.98 g/m*3
Windchill
(Aussen-T/F)
5.3 C
10-11-2011  06:23:06
7.6 C
10-11-2011  13:35:02
6.24 C

Die Daten stammen von einer Davis Vantage Pro 2 Wetter-Station und werden unter Linux mit der Software wview2wettercgi und aufbereitet. Alle Angaben erfolgen ohne Gewähr für ihre Vollständigkeit oder Richtigkeit.
Kontakt: Rainer Krienke krienke@uni-koblenz.de . Meine Webseiten an der Uni Koblenz oder privat.
Version: $Revision: 0.78 $